Tucson, AZ (85730)

12:28 AM MST on February 06, 2016 (GMT -0700)
Buckwheat | | Change Station
CLOSE
Current Station
Personal Weather Station
Location: Tucson, AZ
Elevation: 2671 ft
Nearby Weather Stations

Elev 2671 ft 32.19 °N, 110.82 °W | Updated 9 seconds ago

Clear
Clear
38.7 °F
Feels Like 39 °F
N
0.0
Wind Variable Wind from SW

Today
High -- | Low -- °F
--% Chance of Precip.
Yesterday
High -- | Low -- °F
Precip. -- in
Pressure 30.31 in
Visibility 10.0 miles
Clouds Clear
Windchill 39 °F
Dew Point 19 °F
Humidity 44%
Rainfall 0.00 in
Snow Depth Not available.
7:13 AM 6:01 PM
Waning Crescent, 7% visible
METAR KDMA 060658Z AUTO 14007KT 10SM CLR 06/M09 A3034 RMK AO2 SLP263 T00571089 401701011 $
Pressure 30.31 in
Visibility 10.0 miles
Clouds Clear
Windchill 39 °F
Dew Point 19 °F
Humidity 44%
Rainfall 0.00 in
Snow Depth Not available.
7:13 AM 6:01 PM
Waning Crescent, 7% visible
METAR KDMA 060658Z AUTO 14007KT 10SM CLR 06/M09 A3034 RMK AO2 SLP263 T00571089 401701011 $

10-Day Weather Forecast

Almanac

Astronomy

Feb. 06, 2016 Rise Set
Actual Time
Civil Twilight
Nautical Twilight
Astronomical Twilight
Moon
Length of Visible Light
Length of Day
Tomorrow will be .
, % of the Moon is Illuminated

Today's Extremes

State Highs State Lows

Community

WunderPhotos

Upload Photos

1,890,933 photos uploaded!

WunderBlog® & News

Nearby

Air Quality

  Air Quality AQ Index Pollutant
Not available.

Snow Depth

Station Depth Elevation

Earthquake Activity

City Distance Mag. Time & Date
Minimum magnitude displayed is 2.5.

Coastal Water Temperatures

Place Temperature

Stations

Nearby Weather Stations

Station Location Temp. Windchill Dew Point Humidity Wind Precip. Elev Updated Type
                   

Watches & Warnings

There are currently no watches in effect.